sim
Sign-in with your pilot id or email,
or register
Callsign
Passwort

Schedule Details

Flight Number: DLH816 (3)
Departure: Frankfurt Airport (EDDF) at 10:35
Arrival: Gothenburg Landvetter Airport (ESGG) at 12:15
Route: Lufthansa Passenger Schedule. Enter filed route here before submitting Pirep.

Weather Information
Getting current METAR information for EDDF 291220Z 23006KT 9999 -SHRA FEW020CB BKN028 10/08 Q1019 TEMPO SHRA
Getting current METAR information for ESGG 291220Z 19003KT 9999 FEW007 SCT051 09/07 Q1004

Schedule Frequency

Route Map